sensor_id;sensor_type;location;lat;lon;timestamp;pressure;altitude;pressure_sealevel;temperature;humidity
34297;BME280;20564;42.902;25.336;2023-09-19T00:00:38;97567.88;;;12.13;100.00
34297;BME280;20564;42.902;25.336;2023-09-19T00:03:08;97573.44;;;12.20;100.00
34297;BME280;20564;42.902;25.336;2023-09-19T00:05:37;97575.25;;;12.19;100.00
34297;BME280;20564;42.902;25.336;2023-09-19T00:08:12;97577.78;;;12.11;100.00
34297;BME280;20564;42.902;25.336;2023-09-19T00:10:42;97574.16;;;12.02;100.00
34297;BME280;20564;42.902;25.336;2023-09-19T00:13:10;97580.56;;;12.00;100.00
34297;BME280;20564;42.902;25.336;2023-09-19T00:15:45;97572.06;;;12.06;100.00
34297;BME280;20564;42.902;25.336;2023-09-19T00:18:18;97573.03;;;11.95;100.00
34297;BME280;20564;42.902;25.336;2023-09-19T00:20:49;97574.84;;;11.95;100.00
34297;BME280;20564;42.902;25.336;2023-09-19T00:23:19;97576.22;;;11.99;100.00
34297;BME280;20564;42.902;25.336;2023-09-19T00:25:46;97575.13;;;12.01;100.00
34297;BME280;20564;42.902;25.336;2023-09-19T00:28:13;97576.81;;;11.93;100.00
34297;BME280;20564;42.902;25.336;2023-09-19T00:30:43;97578.56;;;11.82;100.00
34297;BME280;20564;42.902;25.336;2023-09-19T00:33:11;97569.72;;;11.83;100.00
34297;BME280;20564;42.902;25.336;2023-09-19T00:35:52;97570.53;;;11.84;100.00
34297;BME280;20564;42.902;25.336;2023-09-19T00:38:20;97574.13;;;11.83;100.00
34297;BME280;20564;42.902;25.336;2023-09-19T00:40:50;97566.38;;;11.81;100.00
34297;BME280;20564;42.902;25.336;2023-09-19T00:43:17;97569.84;;;11.82;100.00
34297;BME280;20564;42.902;25.336;2023-09-19T00:45:47;97569.41;;;11.77;100.00
34297;BME280;20564;42.902;25.336;2023-09-19T00:48:19;97567.19;;;11.72;100.00
34297;BME280;20564;42.902;25.336;2023-09-19T00:50:47;97559.97;;;11.74;100.00
34297;BME280;20564;42.902;25.336;2023-09-19T00:53:17;97558.88;;;11.67;100.00
34297;BME280;20564;42.902;25.336;2023-09-19T00:55:46;97558.88;;;11.67;100.00
34297;BME280;20564;42.902;25.336;2023-09-19T00:58:13;97568.28;;;11.70;100.00
34297;BME280;20564;42.902;25.336;2023-09-19T01:00:40;97563.00;;;11.70;100.00
34297;BME280;20564;42.902;25.336;2023-09-19T01:03:11;97561.50;;;11.67;100.00
34297;BME280;20564;42.902;25.336;2023-09-19T01:05:40;97565.38;;;11.63;100.00
34297;BME280;20564;42.902;25.336;2023-09-19T01:08:07;97566.34;;;11.62;100.00
34297;BME280;20564;42.902;25.336;2023-09-19T01:10:35;97566.06;;;11.65;100.00
34297;BME280;20564;42.902;25.336;2023-09-19T01:13:13;97566.47;;;11.61;100.00
34297;BME280;20564;42.902;25.336;2023-09-19T01:15:55;97561.38;;;11.59;100.00
34297;BME280;20564;42.902;25.336;2023-09-19T01:21:36;97555.47;;;11.36;100.00
34297;BME280;20564;42.902;25.336;2023-09-19T01:30:10;97558.69;;;11.30;100.00
34297;BME280;20564;42.902;25.336;2023-09-19T01:32:42;97549.13;;;11.39;100.00
34297;BME280;20564;42.902;25.336;2023-09-19T01:35:11;97549.38;;;11.35;100.00
34297;BME280;20564;42.902;25.336;2023-09-19T01:37:40;97537.97;;;11.25;100.00
34297;BME280;20564;42.902;25.336;2023-09-19T01:40:12;97541.31;;;11.27;100.00
34297;BME280;20564;42.902;25.336;2023-09-19T01:48:35;97530.78;;;11.27;100.00
34297;BME280;20564;42.902;25.336;2023-09-19T01:51:08;97539.50;;;11.18;100.00
34297;BME280;20564;42.902;25.336;2023-09-19T01:53:44;97539.38;;;11.20;100.00
34297;BME280;20564;42.902;25.336;2023-09-19T01:56:25;97543.81;;;11.19;100.00
34297;BME280;20564;42.902;25.336;2023-09-19T01:58:56;97536.03;;;11.18;100.00
34297;BME280;20564;42.902;25.336;2023-09-19T02:01:28;97539.34;;;11.10;100.00
34297;BME280;20564;42.902;25.336;2023-09-19T02:03:55;97539.06;;;11.13;100.00
34297;BME280;20564;42.902;25.336;2023-09-19T02:06:23;97541.00;;;11.11;100.00
34297;BME280;20564;42.902;25.336;2023-09-19T02:08:51;97538.47;;;11.00;100.00
34297;BME280;20564;42.902;25.336;2023-09-19T02:11:18;97534.59;;;11.04;100.00
34297;BME280;20564;42.902;25.336;2023-09-19T02:13:45;97528.63;;;10.92;100.00
34297;BME280;20564;42.902;25.336;2023-09-19T02:16:16;97526.81;;;10.93;100.00
34297;BME280;20564;42.902;25.336;2023-09-19T02:18:44;97530.69;;;10.89;100.00
34297;BME280;20564;42.902;25.336;2023-09-19T02:21:10;97534.03;;;10.91;100.00
34297;BME280;20564;42.902;25.336;2023-09-19T02:23:39;97533.75;;;10.94;100.00
34297;BME280;20564;42.902;25.336;2023-09-19T02:26:06;97532.06;;;10.93;100.00
34297;BME280;20564;42.902;25.336;2023-09-19T02:28:34;97529.84;;;10.88;100.00
34297;BME280;20564;42.902;25.336;2023-09-19T02:31:02;97538.13;;;10.74;100.00
34297;BME280;20564;42.902;25.336;2023-09-19T02:33:32;97532.72;;;10.75;100.00
34297;BME280;20564;42.902;25.336;2023-09-19T02:35:59;97526.91;;;10.72;100.00
34297;BME280;20564;42.902;25.336;2023-09-19T02:38:28;97516.47;;;10.70;100.00
34297;BME280;20564;42.902;25.336;2023-09-19T02:40:55;97520.34;;;10.66;100.00
34297;BME280;20564;42.902;25.336;2023-09-19T02:43:23;97520.59;;;10.63;100.00
34297;BME280;20564;42.902;25.336;2023-09-19T02:45:50;97521.72;;;10.60;100.00
34297;BME280;20564;42.902;25.336;2023-09-19T02:48:20;97524.94;;;10.64;100.00
34297;BME280;20564;42.902;25.336;2023-09-19T02:50:51;97526.44;;;10.57;100.00
34297;BME280;20564;42.902;25.336;2023-09-19T02:53:18;97522.56;;;10.61;100.00
34297;BME280;20564;42.902;25.336;2023-09-19T02:55:47;97524.06;;;10.54;100.00
34297;BME280;20564;42.902;25.336;2023-09-19T02:58:15;97526.53;;;10.55;100.00
34297;BME280;20564;42.902;25.336;2023-09-19T03:00:46;97529.31;;;10.54;100.00
34297;BME280;20564;42.902;25.336;2023-09-19T03:03:17;97526.94;;;10.51;100.00
34297;BME280;20564;42.902;25.336;2023-09-19T03:05:44;97527.19;;;10.48;100.00
34297;BME280;20564;42.902;25.336;2023-09-19T03:08:18;97525.97;;;10.52;100.00
34297;BME280;20564;42.902;25.336;2023-09-19T03:10:48;97522.91;;;10.47;100.00
34297;BME280;20564;42.902;25.336;2023-09-19T03:13:19;97519.16;;;10.49;100.00
34297;BME280;20564;42.902;25.336;2023-09-19T03:15:47;97514.28;;;10.45;100.00
34297;BME280;20564;42.902;25.336;2023-09-19T03:18:18;97520.97;;;10.49;100.00
34297;BME280;20564;42.902;25.336;2023-09-19T03:20:53;97515.28;;;10.44;100.00
34297;BME280;20564;42.902;25.336;2023-09-19T03:23:22;97513.88;;;10.40;100.00
34297;BME280;20564;42.902;25.336;2023-09-19T03:25:50;97527.72;;;10.42;100.00
34297;BME280;20564;42.902;25.336;2023-09-19T03:28:19;97532.97;;;10.42;100.00
34297;BME280;20564;42.902;25.336;2023-09-19T03:31:02;97532.97;;;10.42;100.00
34297;BME280;20564;42.902;25.336;2023-09-19T03:33:30;97540.50;;;10.46;100.00
34297;BME280;20564;42.902;25.336;2023-09-19T03:36:02;97541.31;;;10.47;100.00
34297;BME280;20564;42.902;25.336;2023-09-19T03:38:34;97541.84;;;10.41;100.00
34297;BME280;20564;42.902;25.336;2023-09-19T03:41:02;97547.25;;;10.39;100.00
34297;BME280;20564;42.902;25.336;2023-09-19T03:43:32;97546.94;;;10.32;100.00
34297;BME280;20564;42.902;25.336;2023-09-19T03:46:02;97541.91;;;10.29;100.00
34297;BME280;20564;42.902;25.336;2023-09-19T03:48:32;97542.88;;;10.28;100.00
34297;BME280;20564;42.902;25.336;2023-09-19T03:51:00;97546.94;;;10.32;100.00
34297;BME280;20564;42.902;25.336;2023-09-19T03:53:27;97547.44;;;10.26;100.00
34297;BME280;20564;42.902;25.336;2023-09-19T03:55:57;97543.97;;;10.26;100.00
34297;BME280;20564;42.902;25.336;2023-09-19T03:58:24;97545.03;;;10.23;100.00
34297;BME280;20564;42.902;25.336;2023-09-19T04:00:55;97546.47;;;10.27;100.00
34297;BME280;20564;42.902;25.336;2023-09-19T04:03:23;97543.22;;;10.24;100.00
34297;BME280;20564;42.902;25.336;2023-09-19T04:05:51;97539.75;;;10.23;100.00
34297;BME280;20564;42.902;25.336;2023-09-19T04:08:18;97541.44;;;10.24;100.00
34297;BME280;20564;42.902;25.336;2023-09-19T04:10:45;97543.16;;;10.25;100.00
34297;BME280;20564;42.902;25.336;2023-09-19T04:13:14;97543.97;;;10.26;100.00
34297;BME280;20564;42.902;25.336;2023-09-19T04:15:42;97541.91;;;10.29;100.00
34297;BME280;20564;42.902;25.336;2023-09-19T04:18:09;97546.94;;;10.32;100.00
34297;BME280;20564;42.902;25.336;2023-09-19T04:20:36;97540.69;;;10.33;100.00
34297;BME280;20564;42.902;25.336;2023-09-19T04:23:03;97539.03;;;10.32;100.00
34297;BME280;20564;42.902;25.336;2023-09-19T04:25:32;97540.69;;;10.33;100.00
34297;BME280;20564;42.902;25.336;2023-09-19T04:27:59;97536.16;;;10.35;100.00
34297;BME280;20564;42.902;25.336;2023-09-19T04:30:26;97534.03;;;10.29;100.00
34297;BME280;20564;42.902;25.336;2023-09-19T04:32:53;97531.13;;;10.32;100.00
34297;BME280;20564;42.902;25.336;2023-09-19T04:35:20;97530.06;;;10.35;100.00
34297;BME280;20564;42.902;25.336;2023-09-19T04:37:47;97530.16;;;10.33;100.00
34297;BME280;20564;42.902;25.336;2023-09-19T04:40:15;97524.91;;;10.33;100.00
34297;BME280;20564;42.902;25.336;2023-09-19T04:42:45;97533.78;;;10.32;100.00
34297;BME280;20564;42.902;25.336;2023-09-19T04:45:13;97540.44;;;10.36;100.00
34297;BME280;20564;42.902;25.336;2023-09-19T04:47:39;97534.66;;;10.43;100.00
34297;BME280;20564;42.902;25.336;2023-09-19T04:50:08;97537.16;;;10.44;100.00
34297;BME280;20564;42.902;25.336;2023-09-19T04:52:42;97544.94;;;10.46;100.00
34297;BME280;20564;42.902;25.336;2023-09-19T04:55:15;97542.72;;;10.51;100.00
34297;BME280;20564;42.902;25.336;2023-09-19T04:57:50;97544.38;;;10.52;100.00
34297;BME280;20564;42.902;25.336;2023-09-19T05:00:21;97536.66;;;10.60;100.00
34297;BME280;20564;42.902;25.336;2023-09-19T05:02:55;97539.50;;;10.68;100.00
34297;BME280;20564;42.902;25.336;2023-09-19T05:05:26;97538.94;;;10.74;100.00
34297;BME280;20564;42.902;25.336;2023-09-19T05:07:53;97525.50;;;10.77;100.00
34297;BME280;20564;42.902;25.336;2023-09-19T05:10:21;97518.75;;;10.84;100.00
34297;BME280;20564;42.902;25.336;2023-09-19T05:12:48;97516.56;;;10.90;100.00
34297;BME280;20564;42.902;25.336;2023-09-19T05:15:19;97521.84;;;10.99;100.00
34297;BME280;20564;42.902;25.336;2023-09-19T05:17:52;97521.88;;;11.09;100.00
34297;BME280;20564;42.902;25.336;2023-09-19T05:20:24;97521.50;;;11.23;100.00
34297;BME280;20564;42.902;25.336;2023-09-19T05:23:02;97522.06;;;11.37;100.00
34297;BME280;20564;42.902;25.336;2023-09-19T05:25:31;97516.94;;;11.54;100.00
34297;BME280;20564;42.902;25.336;2023-09-19T05:27:59;97509.88;;;11.74;100.00
34297;BME280;20564;42.902;25.336;2023-09-19T05:30:27;97505.88;;;11.99;100.00
34297;BME280;20564;42.902;25.336;2023-09-19T05:32:53;97504.00;;;12.19;100.00
34297;BME280;20564;42.902;25.336;2023-09-19T05:35:22;97506.13;;;12.53;100.00
34297;BME280;20564;42.902;25.336;2023-09-19T05:37:53;97508.50;;;12.84;100.00
34297;BME280;20564;42.902;25.336;2023-09-19T05:40:21;97506.25;;;13.16;100.00
34297;BME280;20564;42.902;25.336;2023-09-19T05:42:48;97498.28;;;13.44;100.00
34297;BME280;20564;42.902;25.336;2023-09-19T05:45:17;97491.88;;;13.82;100.00
34297;BME280;20564;42.902;25.336;2023-09-19T05:47:54;97501.22;;;14.20;100.00
34297;BME280;20564;42.902;25.336;2023-09-19T05:50:27;97500.88;;;14.67;100.00
34297;BME280;20564;42.902;25.336;2023-09-19T05:52:54;97504.69;;;15.07;100.00
34297;BME280;20564;42.902;25.336;2023-09-19T05:55:22;97498.81;;;15.46;100.00
34297;BME280;20564;42.902;25.336;2023-09-19T05:57:53;97484.28;;;15.83;100.00
34297;BME280;20564;42.902;25.336;2023-09-19T06:00:20;97490.56;;;16.23;100.00
34297;BME280;20564;42.902;25.336;2023-09-19T06:02:53;97488.97;;;16.61;100.00
34297;BME280;20564;42.902;25.336;2023-09-19T06:05:21;97474.63;;;16.86;100.00
34297;BME280;20564;42.902;25.336;2023-09-19T06:07:49;97481.44;;;17.20;100.00
34297;BME280;20564;42.902;25.336;2023-09-19T06:10:17;97476.09;;;17.51;99.22
34297;BME280;20564;42.902;25.336;2023-09-19T06:12:44;97476.59;;;17.78;96.76
34297;BME280;20564;42.902;25.336;2023-09-19T06:15:12;97479.78;;;17.96;97.89
34297;BME280;20564;42.902;25.336;2023-09-19T06:17:50;97478.25;;;18.17;95.81
34297;BME280;20564;42.902;25.336;2023-09-19T06:20:20;97478.47;;;18.30;93.48
34297;BME280;20564;42.902;25.336;2023-09-19T06:22:49;97485.56;;;18.38;91.92
34297;BME280;20564;42.902;25.336;2023-09-19T06:25:16;97477.66;;;18.44;91.30
34297;BME280;20564;42.902;25.336;2023-09-19T06:27:53;97482.72;;;18.54;92.26
34297;BME280;20564;42.902;25.336;2023-09-19T06:30:22;97480.25;;;18.82;91.07
34297;BME280;20564;42.902;25.336;2023-09-19T06:32:58;97474.44;;;19.08;90.32
34297;BME280;20564;42.902;25.336;2023-09-19T06:35:27;97473.44;;;19.45;89.40
34297;BME280;20564;42.902;25.336;2023-09-19T06:37:56;97471.94;;;19.79;85.39
34297;BME280;20564;42.902;25.336;2023-09-19T06:40:25;97468.03;;;20.03;82.25
34297;BME280;20564;42.902;25.336;2023-09-19T06:42:52;97471.09;;;20.28;82.20
34297;BME280;20564;42.902;25.336;2023-09-19T06:45:20;97467.53;;;20.49;81.00
34297;BME280;20564;42.902;25.336;2023-09-19T06:47:50;97462.00;;;20.85;80.25
34297;BME280;20564;42.902;25.336;2023-09-19T06:50:20;97465.81;;;21.11;76.97
34297;BME280;20564;42.902;25.336;2023-09-19T06:52:54;97456.84;;;21.32;72.93
34297;BME280;20564;42.902;25.336;2023-09-19T06:55:22;97456.69;;;21.53;72.37
34297;BME280;20564;42.902;25.336;2023-09-19T06:57:52;97454.06;;;21.73;72.02
34297;BME280;20564;42.902;25.336;2023-09-19T07:00:21;97448.09;;;21.91;71.63
34297;BME280;20564;42.902;25.336;2023-09-19T07:05:28;97445.22;;;22.39;67.77
34297;BME280;20564;42.902;25.336;2023-09-19T07:07:59;97447.03;;;22.58;65.42
34297;BME280;20564;42.902;25.336;2023-09-19T07:10:28;97438.69;;;22.86;64.06
34297;BME280;20564;42.902;25.336;2023-09-19T07:12:56;97441.47;;;23.18;64.06
34297;BME280;20564;42.902;25.336;2023-09-19T07:15:25;97433.94;;;23.40;62.38
34297;BME280;20564;42.902;25.336;2023-09-19T07:17:54;97435.63;;;23.66;62.64
34297;BME280;20564;42.902;25.336;2023-09-19T07:20:24;97431.81;;;23.80;61.39
34297;BME280;20564;42.902;25.336;2023-09-19T07:22:58;97427.81;;;24.15;63.00
34297;BME280;20564;42.902;25.336;2023-09-19T07:25:29;97422.13;;;24.48;58.94
34297;BME280;20564;42.902;25.336;2023-09-19T07:27:59;97416.16;;;24.83;57.97
34297;BME280;20564;42.902;25.336;2023-09-19T07:30:28;97411.78;;;25.18;54.85
34297;BME280;20564;42.902;25.336;2023-09-19T07:32:56;97406.00;;;25.33;56.47
34297;BME280;20564;42.902;25.336;2023-09-19T07:35:23;97405.31;;;25.38;54.24
34297;BME280;20564;42.902;25.336;2023-09-19T07:37:51;97404.91;;;25.53;54.86
34297;BME280;20564;42.902;25.336;2023-09-19T07:40:21;97403.16;;;25.70;55.28
34297;BME280;20564;42.902;25.336;2023-09-19T07:42:50;97397.31;;;25.73;51.51
34297;BME280;20564;42.902;25.336;2023-09-19T07:45:17;97388.50;;;25.66;50.87
34297;BME280;20564;42.902;25.336;2023-09-19T07:47:49;97390.63;;;25.64;51.32
34297;BME280;20564;42.902;25.336;2023-09-19T07:50:17;97398.00;;;25.68;51.13
34297;BME280;20564;42.902;25.336;2023-09-19T07:52:49;97394.00;;;25.59;51.99
34297;BME280;20564;42.902;25.336;2023-09-19T07:55:20;97383.16;;;25.36;51.69
34297;BME280;20564;42.902;25.336;2023-09-19T07:57:51;97383.53;;;25.39;51.43
34297;BME280;20564;42.902;25.336;2023-09-19T08:00:19;97386.59;;;25.55;50.59
34297;BME280;20564;42.902;25.336;2023-09-19T08:02:46;97381.72;;;25.63;49.07
34297;BME280;20564;42.902;25.336;2023-09-19T08:05:24;97378.03;;;25.46;47.94
34297;BME280;20564;42.902;25.336;2023-09-19T08:07:51;97365.34;;;25.35;48.47
34297;BME280;20564;42.902;25.336;2023-09-19T08:10:19;97369.22;;;25.39;48.07
34297;BME280;20564;42.902;25.336;2023-09-19T08:12:48;97362.25;;;25.61;48.01
34297;BME280;20564;42.902;25.336;2023-09-19T08:15:19;97366.31;;;25.82;47.37
34297;BME280;20564;42.902;25.336;2023-09-19T08:17:47;97358.81;;;26.08;47.01
34297;BME280;20564;42.902;25.336;2023-09-19T08:20:15;97364.31;;;26.48;47.07
34297;BME280;20564;42.902;25.336;2023-09-19T08:22:53;97363.03;;;26.79;46.51
34297;BME280;20564;42.902;25.336;2023-09-19T08:25:23;97361.84;;;26.87;43.21
34297;BME280;20564;42.902;25.336;2023-09-19T08:27:54;97358.28;;;26.98;44.13
34297;BME280;20564;42.902;25.336;2023-09-19T08:30:26;97356.38;;;27.10;41.13
34297;BME280;20564;42.902;25.336;2023-09-19T08:32:58;97346.75;;;27.14;42.37
34297;BME280;20564;42.902;25.336;2023-09-19T08:35:27;97345.13;;;27.30;42.76
34297;BME280;20564;42.902;25.336;2023-09-19T08:37:54;97340.06;;;27.34;41.23
34297;BME280;20564;42.902;25.336;2023-09-19T08:40:22;97329.66;;;27.26;41.39
34297;BME280;20564;42.902;25.336;2023-09-19T08:42:55;97333.19;;;27.43;42.84
34297;BME280;20564;42.902;25.336;2023-09-19T08:45:23;97336.22;;;27.63;42.04
34297;BME280;20564;42.902;25.336;2023-09-19T08:48:17;97331.78;;;27.74;41.12
34297;BME280;20564;42.902;25.336;2023-09-19T08:51:08;97330.25;;;27.78;42.14
34297;BME280;20564;42.902;25.336;2023-09-19T08:56:13;97321.22;;;28.06;40.32
34297;BME280;20564;42.902;25.336;2023-09-19T08:58:50;97322.09;;;27.90;39.76
34297;BME280;20564;42.902;25.336;2023-09-19T09:01:20;97312.78;;;27.86;39.35
34297;BME280;20564;42.902;25.336;2023-09-19T09:03:55;97312.25;;;27.84;39.49
34297;BME280;20564;42.902;25.336;2023-09-19T09:06:23;97311.25;;;27.90;38.59
34297;BME280;20564;42.902;25.336;2023-09-19T09:08:51;97302.72;;;27.98;39.30
34297;BME280;20564;42.902;25.336;2023-09-19T09:11:19;97309.47;;;28.18;39.82
34297;BME280;20564;42.902;25.336;2023-09-19T09:13:47;97307.09;;;28.04;39.64
34297;BME280;20564;42.902;25.336;2023-09-19T09:16:15;97310.16;;;27.74;40.68
34297;BME280;20564;42.902;25.336;2023-09-19T09:18:46;97306.84;;;27.84;41.54
34297;BME280;20564;42.902;25.336;2023-09-19T09:21:25;97301.84;;;27.76;41.60
34297;BME280;20564;42.902;25.336;2023-09-19T09:23:52;97303.53;;;27.82;42.29
34297;BME280;20564;42.902;25.336;2023-09-19T09:29:06;97301.97;;;28.03;40.09
34297;BME280;20564;42.902;25.336;2023-09-19T09:31:33;97304.13;;;27.84;38.19
34297;BME280;20564;42.902;25.336;2023-09-19T09:34:00;97296.50;;;27.81;39.56
34297;BME280;20564;42.902;25.336;2023-09-19T09:36:40;97303.63;;;27.87;38.88
34297;BME280;20564;42.902;25.336;2023-09-19T09:39:08;97297.31;;;27.98;40.11
34297;BME280;20564;42.902;25.336;2023-09-19T09:41:46;97291.81;;;27.93;39.23
34297;BME280;20564;42.902;25.336;2023-09-19T09:44:14;97289.75;;;28.00;38.68
34297;BME280;20564;42.902;25.336;2023-09-19T09:46:47;97278.91;;;28.00;38.84
34297;BME280;20564;42.902;25.336;2023-09-19T09:49:25;97290.09;;;27.87;38.87
34297;BME280;20564;42.902;25.336;2023-09-19T09:52:05;97290.25;;;27.63;38.47
34297;BME280;20564;42.902;25.336;2023-09-19T09:55:03;97292.88;;;27.58;38.47
34297;BME280;20564;42.902;25.336;2023-09-19T09:57:37;97287.47;;;27.58;39.96
34297;BME280;20564;42.902;25.336;2023-09-19T10:00:10;97284.06;;;27.80;38.09
34297;BME280;20564;42.902;25.336;2023-09-19T10:02:40;97280.56;;;28.01;38.36
34297;BME280;20564;42.902;25.336;2023-09-19T10:05:20;97294.81;;;28.13;37.74
34297;BME280;20564;42.902;25.336;2023-09-19T10:07:51;97287.88;;;28.23;36.95
34297;BME280;20564;42.902;25.336;2023-09-19T10:10:36;97281.91;;;28.21;35.75
34297;BME280;20564;42.902;25.336;2023-09-19T10:13:11;97283.63;;;28.27;37.09
34297;BME280;20564;42.902;25.336;2023-09-19T10:15:42;97276.03;;;28.29;36.20
34297;BME280;20564;42.902;25.336;2023-09-19T10:18:26;97266.75;;;28.20;35.54
34297;BME280;20564;42.902;25.336;2023-09-19T10:20:56;97269.00;;;28.28;33.67
34297;BME280;20564;42.902;25.336;2023-09-19T10:23:25;97276.94;;;28.34;34.10
34297;BME280;20564;42.902;25.336;2023-09-19T10:25:57;97278.06;;;28.17;32.95
34297;BME280;20564;42.902;25.336;2023-09-19T10:28:27;97264.47;;;28.33;34.07
34297;BME280;20564;42.902;25.336;2023-09-19T10:30:57;97269.72;;;28.40;33.00
34297;BME280;20564;42.902;25.336;2023-09-19T10:33:25;97267.69;;;28.30;32.19
34297;BME280;20564;42.902;25.336;2023-09-19T10:36:06;97266.66;;;28.15;34.38
34297;BME280;20564;42.902;25.336;2023-09-19T10:38:37;97267.00;;;28.40;34.14
34297;BME280;20564;42.902;25.336;2023-09-19T10:41:08;97270.22;;;28.59;34.83
34297;BME280;20564;42.902;25.336;2023-09-19T10:43:39;97258.22;;;28.77;31.46
34297;BME280;20564;42.902;25.336;2023-09-19T10:46:18;97253.06;;;28.75;31.42
34297;BME280;20564;42.902;25.336;2023-09-19T10:48:46;97255.09;;;28.90;30.89
34297;BME280;20564;42.902;25.336;2023-09-19T10:51:20;97254.72;;;29.03;31.78
34297;BME280;20564;42.902;25.336;2023-09-19T10:53:59;97260.22;;;29.14;30.98
34297;BME280;20564;42.902;25.336;2023-09-19T10:56:34;97252.31;;;29.07;30.16
34297;BME280;20564;42.902;25.336;2023-09-19T10:59:12;97250.28;;;28.97;29.91
34297;BME280;20564;42.902;25.336;2023-09-19T11:01:53;97249.31;;;29.03;32.40
34297;BME280;20564;42.902;25.336;2023-09-19T11:07:10;97250.94;;;29.04;32.22
34297;BME280;20564;42.902;25.336;2023-09-19T11:09:55;97235.19;;;29.01;32.28
34297;BME280;20564;42.902;25.336;2023-09-19T11:14:56;97239.66;;;28.64;29.57
34297;BME280;20564;42.902;25.336;2023-09-19T11:17:36;97236.88;;;28.58;32.07
34297;BME280;20564;42.902;25.336;2023-09-19T11:30:39;97229.19;;;28.99;32.80
34297;BME280;20564;42.902;25.336;2023-09-19T11:33:17;97228.97;;;29.06;32.01
34297;BME280;20564;42.902;25.336;2023-09-19T11:43:54;97219.63;;;29.19;31.70
34297;BME280;20564;42.902;25.336;2023-09-19T11:46:54;97217.47;;;29.21;32.35
34297;BME280;20564;42.902;25.336;2023-09-19T11:49:28;97214.31;;;29.34;32.80
34297;BME280;20564;42.902;25.336;2023-09-19T11:52:01;97210.72;;;29.23;35.17
34297;BME280;20564;42.902;25.336;2023-09-19T11:54:32;97204.47;;;29.23;33.55
34297;BME280;20564;42.902;25.336;2023-09-19T11:57:00;97199.69;;;29.03;33.07
34297;BME280;20564;42.902;25.336;2023-09-19T11:59:29;97204.13;;;28.87;32.21
34297;BME280;20564;42.902;25.336;2023-09-19T12:02:01;97200.81;;;28.80;33.97
34297;BME280;20564;42.902;25.336;2023-09-19T12:04:43;97199.03;;;28.64;35.57
34297;BME280;20564;42.902;25.336;2023-09-19T12:07:13;97195.22;;;28.59;35.94
34297;BME280;20564;42.902;25.336;2023-09-19T12:09:47;97196.84;;;28.60;36.15
34297;BME280;20564;42.902;25.336;2023-09-19T12:12:26;97185.53;;;28.69;33.61
34297;BME280;20564;42.902;25.336;2023-09-19T12:14:55;97187.44;;;28.68;33.54
34297;BME280;20564;42.902;25.336;2023-09-19T12:17:39;97191.00;;;28.74;34.94
34297;BME280;20564;42.902;25.336;2023-09-19T12:20:12;97190.50;;;28.77;35.70
34297;BME280;20564;42.902;25.336;2023-09-19T12:22:44;97183.84;;;28.63;34.96
34297;BME280;20564;42.902;25.336;2023-09-19T12:25:13;97182.63;;;28.48;35.64
34297;BME280;20564;42.902;25.336;2023-09-19T12:27:43;97185.13;;;28.55;33.24
34297;BME280;20564;42.902;25.336;2023-09-19T12:30:14;97182.63;;;28.48;33.20
34297;BME280;20564;42.902;25.336;2023-09-19T12:32:53;97180.13;;;28.42;33.53
34297;BME280;20564;42.902;25.336;2023-09-19T12:35:27;97188.50;;;28.40;34.89
34297;BME280;20564;42.902;25.336;2023-09-19T12:37:55;97188.16;;;28.15;34.03
34297;BME280;20564;42.902;25.336;2023-09-19T12:40:27;97185.53;;;28.20;33.02
34297;BME280;20564;42.902;25.336;2023-09-19T12:43:00;97193.09;;;28.18;33.24
34297;BME280;20564;42.902;25.336;2023-09-19T12:45:30;97192.59;;;28.21;33.55
34297;BME280;20564;42.902;25.336;2023-09-19T12:51:03;97186.41;;;28.47;33.71
34297;BME280;20564;42.902;25.336;2023-09-19T12:53:41;97181.28;;;28.51;33.25
34297;BME280;20564;42.902;25.336;2023-09-19T12:56:17;97184.78;;;28.46;33.12
34297;BME280;20564;42.902;25.336;2023-09-19T12:59:03;97187.59;;;28.34;35.03
34297;BME280;20564;42.902;25.336;2023-09-19T13:01:31;97183.47;;;28.27;35.12
34297;BME280;20564;42.902;25.336;2023-09-19T13:04:22;97182.06;;;28.24;34.28
34297;BME280;20564;42.902;25.336;2023-09-19T13:06:57;97184.41;;;28.16;34.98
34297;BME280;20564;42.902;25.336;2023-09-19T13:09:28;97186.41;;;28.03;33.17
34297;BME280;20564;42.902;25.336;2023-09-19T13:12:02;97188.75;;;27.95;32.38
34297;BME280;20564;42.902;25.336;2023-09-19T13:14:31;97182.06;;;27.80;32.35
34297;BME280;20564;42.902;25.336;2023-09-19T13:19:51;97187.97;;;27.60;33.34
34297;BME280;20564;42.902;25.336;2023-09-19T13:25:22;97172.47;;;27.34;32.75
34297;BME280;20564;42.902;25.336;2023-09-19T13:27:54;97171.25;;;27.25;32.41
34297;BME280;20564;42.902;25.336;2023-09-19T13:30:27;97173.31;;;27.17;33.71
34297;BME280;20564;42.902;25.336;2023-09-19T13:33:11;97173.94;;;27.08;33.54
34297;BME280;20564;42.902;25.336;2023-09-19T13:35:41;97178.53;;;27.07;33.44
34297;BME280;20564;42.902;25.336;2023-09-19T13:38:08;97169.03;;;27.05;32.25
34297;BME280;20564;42.902;25.336;2023-09-19T13:40:40;97180.16;;;27.08;33.25
34297;BME280;20564;42.902;25.336;2023-09-19T13:43:11;97169.03;;;27.05;33.58
34297;BME280;20564;42.902;25.336;2023-09-19T13:45:39;97177.06;;;27.00;33.47
34297;BME280;20564;42.902;25.336;2023-09-19T13:48:12;97166.00;;;27.01;32.54
34297;BME280;20564;42.902;25.336;2023-09-19T13:50:40;97164.94;;;27.02;33.04
34297;BME280;20564;42.902;25.336;2023-09-19T13:53:14;97161.50;;;27.07;33.28
34297;BME280;20564;42.902;25.336;2023-09-19T13:55:42;97170.03;;;26.99;34.03
34297;BME280;20564;42.902;25.336;2023-09-19T13:58:10;97166.06;;;26.73;35.48
34297;BME280;20564;42.902;25.336;2023-09-19T14:00:39;97165.63;;;26.64;34.87